createdAt,value
2023-05-13T00:01:52.072Z,99.90
2023-05-13T00:04:24.170Z,99.90
2023-05-13T00:06:56.311Z,99.90
2023-05-13T00:09:28.512Z,99.90
2023-05-13T00:12:03.658Z,99.90
2023-05-13T00:14:35.861Z,99.90
2023-05-13T00:17:08.002Z,99.90
2023-05-13T00:19:40.103Z,99.90
2023-05-13T00:22:12.304Z,99.90
2023-05-13T00:24:44.428Z,99.90
2023-05-13T00:27:19.050Z,99.90
2023-05-13T00:29:51.093Z,99.90
2023-05-13T00:32:23.219Z,99.90
2023-05-13T00:34:55.589Z,99.90
2023-05-13T00:37:27.832Z,99.90
2023-05-13T00:39:59.907Z,99.90
2023-05-13T00:42:34.564Z,99.90
2023-05-13T00:45:07.806Z,99.90
2023-05-13T00:47:41.189Z,99.90
2023-05-13T00:50:14.512Z,99.90
2023-05-13T00:52:47.928Z,99.90
2023-05-13T00:55:20.248Z,99.90
2023-05-13T00:57:54.903Z,99.90
2023-05-13T01:00:27.928Z,99.90
2023-05-13T01:03:06.616Z,99.90
2023-05-13T01:05:46.106Z,99.90
2023-05-13T01:08:26.916Z,99.90
2023-05-13T01:11:03.335Z,99.90
2023-05-13T01:13:43.236Z,99.90
2023-05-13T01:16:20.820Z,99.90
2023-05-13T01:18:57.508Z,99.90
2023-05-13T01:21:36.073Z,99.90
2023-05-13T01:24:08.716Z,99.90
2023-05-13T01:26:40.933Z,99.90
2023-05-13T01:29:13.652Z,99.90
2023-05-13T01:31:47.180Z,99.90
2023-05-13T01:34:20.851Z,99.90
2023-05-13T01:36:56.460Z,99.90
2023-05-13T01:39:37.681Z,99.90
2023-05-13T01:42:09.928Z,99.90
2023-05-13T01:44:42.018Z,99.90
2023-05-13T01:47:14.185Z,99.90
2023-05-13T01:49:46.235Z,99.90
2023-05-13T01:52:21.107Z,99.90
2023-05-13T01:54:53.160Z,99.90
2023-05-13T01:57:25.412Z,99.90
2023-05-13T01:59:57.545Z,99.90
2023-05-13T02:02:29.651Z,99.90
2023-05-13T02:05:01.793Z,99.90
2023-05-13T02:07:36.807Z,99.90
2023-05-13T02:10:10.041Z,99.90
2023-05-13T02:12:42.188Z,99.90
2023-05-13T02:15:14.653Z,99.90
2023-05-13T02:17:46.772Z,99.90
2023-05-13T02:20:19.449Z,99.90
2023-05-13T02:22:54.223Z,99.90
2023-05-13T02:25:26.327Z,99.90
2023-05-13T02:27:58.391Z,99.90
2023-05-13T02:30:30.487Z,99.90
2023-05-13T02:33:02.887Z,99.90
2023-05-13T02:35:35.003Z,99.90
2023-05-13T02:38:09.796Z,99.90
2023-05-13T02:40:42.432Z,99.90
2023-05-13T02:43:14.484Z,99.90
2023-05-13T02:45:47.217Z,99.90
2023-05-13T02:48:19.529Z,99.90
2023-05-13T02:50:51.665Z,99.90
2023-05-13T02:53:26.452Z,99.90
2023-05-13T02:55:58.478Z,99.90
2023-05-13T02:58:30.600Z,99.90
2023-05-13T03:01:02.778Z,99.90
2023-05-13T03:03:35.040Z,99.90
2023-05-13T03:06:07.864Z,99.90
2023-05-13T03:08:42.600Z,99.90
2023-05-13T03:11:14.703Z,99.90
2023-05-13T03:13:46.836Z,99.90
2023-05-13T03:16:19.072Z,99.90
2023-05-13T03:18:51.258Z,99.90
2023-05-13T03:21:23.334Z,99.90
2023-05-13T03:23:58.050Z,99.90
2023-05-13T03:26:30.146Z,99.90
2023-05-13T03:29:02.238Z,99.90
2023-05-13T03:31:35.531Z,99.90
2023-05-13T03:34:07.637Z,99.90
2023-05-13T03:36:39.681Z,99.90
2023-05-13T03:39:14.408Z,99.90
2023-05-13T03:41:46.529Z,99.90
2023-05-13T03:44:18.706Z,99.90
2023-05-13T03:46:50.831Z,99.90
2023-05-13T03:49:22.942Z,99.90
2023-05-13T03:51:55.002Z,99.90
2023-05-13T03:54:29.734Z,99.90
2023-05-13T03:57:01.813Z,99.90
2023-05-13T03:59:33.966Z,99.90
2023-05-13T04:02:06.623Z,99.90
2023-05-13T04:04:38.943Z,99.90
2023-05-13T04:07:12.994Z,99.90
2023-05-13T04:09:47.788Z,99.90
2023-05-13T04:12:19.892Z,99.90
2023-05-13T04:14:51.971Z,99.90
2023-05-13T04:17:24.314Z,99.90
2023-05-13T04:19:56.482Z,99.90
2023-05-13T04:22:28.589Z,99.90
2023-05-13T04:25:03.582Z,99.90
2023-05-13T04:27:35.746Z,99.90
2023-05-13T04:30:09.075Z,99.90
2023-05-13T04:32:41.177Z,99.90
2023-05-13T04:35:13.302Z,99.90
2023-05-13T04:37:45.399Z,99.90
2023-05-13T04:40:20.643Z,99.90
2023-05-13T04:42:55.226Z,99.90
2023-05-13T04:45:27.566Z,99.90
2023-05-13T04:47:59.635Z,99.90
2023-05-13T04:50:32.663Z,99.90
2023-05-13T04:53:05.174Z,99.90
2023-05-13T04:55:39.887Z,99.90
2023-05-13T04:58:12.054Z,99.90
2023-05-13T05:00:44.356Z,99.90
2023-05-13T05:03:16.528Z,99.90
2023-05-13T05:05:48.601Z,99.90
2023-05-13T05:08:20.705Z,99.90
2023-05-13T05:10:55.503Z,99.90
2023-05-13T05:13:27.584Z,99.90
2023-05-13T05:15:59.634Z,99.90
2023-05-13T05:18:31.765Z,99.90
2023-05-13T05:21:04.001Z,99.90
2023-05-13T05:23:36.149Z,99.90
2023-05-13T05:26:12.475Z,99.90
2023-05-13T05:28:45.948Z,99.90
2023-05-13T05:31:18.074Z,99.90
2023-05-13T05:33:50.199Z,99.90
2023-05-13T05:36:22.358Z,99.90
2023-05-13T05:38:54.555Z,99.90
2023-05-13T05:41:29.579Z,99.90
2023-05-13T05:44:01.745Z,99.90
2023-05-13T05:46:34.153Z,99.90
2023-05-13T05:49:08.340Z,99.90
2023-05-13T05:51:40.570Z,99.90
2023-05-13T05:54:12.634Z,99.90
2023-05-13T05:56:49.667Z,99.90
2023-05-13T05:59:21.849Z,99.90
2023-05-13T06:01:53.991Z,99.90
2023-05-13T06:04:26.117Z,99.90
2023-05-13T06:06:58.255Z,99.90
2023-05-13T06:09:30.788Z,99.90
2023-05-13T06:12:06.112Z,99.90
2023-05-13T06:14:38.225Z,99.90
2023-05-13T06:17:10.288Z,99.90
2023-05-13T06:19:45.547Z,99.90
2023-05-13T06:22:17.717Z,99.90
2023-05-13T06:24:49.781Z,99.90
2023-05-13T06:27:24.576Z,99.90
2023-05-13T06:29:56.641Z,99.90
2023-05-13T06:32:28.720Z,99.90
2023-05-13T06:35:01.042Z,99.90
2023-05-13T06:37:34.341Z,99.90
2023-05-13T06:40:08.372Z,99.90
2023-05-13T06:42:43.349Z,99.90
2023-05-13T06:45:15.671Z,99.90
2023-05-13T06:47:47.776Z,99.90
2023-05-13T06:50:20.724Z,99.90
2023-05-13T06:52:53.072Z,99.90
2023-05-13T06:55:25.195Z,99.90
2023-05-13T06:57:59.854Z,99.90
2023-05-13T07:00:32.032Z,99.90
2023-05-13T07:03:06.768Z,99.90
2023-05-13T07:05:38.918Z,99.90
2023-05-13T07:08:11.145Z,99.90
2023-05-13T07:10:43.523Z,99.90
2023-05-13T07:13:19.455Z,99.90
2023-05-13T07:15:51.581Z,99.90
2023-05-13T07:18:23.951Z,99.90
2023-05-13T07:20:58.748Z,99.90
2023-05-13T07:23:31.708Z,99.90
2023-05-13T07:26:04.169Z,99.90
2023-05-13T07:28:39.189Z,99.90
2023-05-13T07:31:11.721Z,99.90
2023-05-13T07:33:43.921Z,99.90
2023-05-13T07:36:16.104Z,99.90
2023-05-13T07:38:48.222Z,99.90
2023-05-13T07:41:20.457Z,99.90
2023-05-13T07:43:55.188Z,99.90
2023-05-13T07:46:27.291Z,99.90
2023-05-13T07:48:59.354Z,99.90
2023-05-13T07:51:31.429Z,99.90
2023-05-13T07:54:03.695Z,99.90
2023-05-13T07:56:36.035Z,99.60
2023-05-13T07:59:10.808Z,99.40
2023-05-13T08:01:43.067Z,99.20
2023-05-13T08:04:15.615Z,99.20
2023-05-13T08:06:47.889Z,99.00
2023-05-13T08:09:20.071Z,98.30
2023-05-13T08:11:52.146Z,98.10
2023-05-13T08:14:26.919Z,97.50
2023-05-13T08:16:59.080Z,97.30
2023-05-13T08:19:31.341Z,97.00
2023-05-13T08:22:03.655Z,96.50
2023-05-13T08:24:35.785Z,95.20
2023-05-13T08:27:07.895Z,95.30
2023-05-13T08:29:42.663Z,94.80
2023-05-13T08:32:14.981Z,94.20
2023-05-13T08:34:47.162Z,94.20
2023-05-13T08:37:19.437Z,94.20
2023-05-13T08:39:51.874Z,94.00
2023-05-13T08:42:25.520Z,93.90
2023-05-13T08:45:03.914Z,92.80
2023-05-13T08:47:44.092Z,92.60
2023-05-13T08:50:19.661Z,92.90
2023-05-13T08:52:54.170Z,93.00
2023-05-13T08:55:27.573Z,92.70
2023-05-13T08:58:00.058Z,92.30
2023-05-13T09:00:35.299Z,92.30
2023-05-13T09:03:10.621Z,91.70
2023-05-13T09:05:44.120Z,91.70
2023-05-13T09:08:16.513Z,91.70
2023-05-13T09:10:48.842Z,91.80
2023-05-13T09:13:22.336Z,91.50
2023-05-13T09:16:00.443Z,90.90
2023-05-13T09:18:33.326Z,90.30
2023-05-13T09:21:22.838Z,90.20
2023-05-13T09:24:21.564Z,90.00
2023-05-13T09:26:53.833Z,90.20
2023-05-13T09:29:29.482Z,90.20
2023-05-13T09:32:10.048Z,89.60
2023-05-13T09:34:48.571Z,88.90
2023-05-13T09:37:23.681Z,88.40
2023-05-13T09:39:55.914Z,88.40
2023-05-13T09:42:28.197Z,86.70
2023-05-13T09:45:06.442Z,86.70
2023-05-13T09:47:41.822Z,86.40
2023-05-13T09:50:14.232Z,85.70
2023-05-13T09:52:46.894Z,85.90
2023-05-13T09:55:19.018Z,85.20
2023-05-13T09:57:53.320Z,84.90
2023-05-13T10:00:32.705Z,84.00
2023-05-13T10:03:07.871Z,83.80
2023-05-13T10:05:41.329Z,83.90
2023-05-13T10:08:15.352Z,82.20
2023-05-13T10:10:49.764Z,80.70
2023-05-13T10:13:24.376Z,80.60
2023-05-13T10:15:57.167Z,80.40
2023-05-13T10:18:31.918Z,79.80
2023-05-13T10:21:05.004Z,79.60
2023-05-13T10:23:37.486Z,79.80
2023-05-13T10:26:10.407Z,80.00
2023-05-13T10:28:43.784Z,79.90
2023-05-13T10:31:16.501Z,80.20
2023-05-13T10:33:53.455Z,80.10
2023-05-13T10:36:39.449Z,80.30
2023-05-13T10:39:37.347Z,80.90
2023-05-13T10:42:31.921Z,80.90
2023-05-13T10:45:04.906Z,80.60
2023-05-13T10:47:37.822Z,80.50
2023-05-13T10:50:23.537Z,80.10
2023-05-13T10:53:01.223Z,80.10
2023-05-13T10:55:41.452Z,79.30
2023-05-13T10:58:14.821Z,79.30
2023-05-13T11:00:47.130Z,78.60
2023-05-13T11:03:30.103Z,78.50
2023-05-13T11:06:16.833Z,78.40
2023-05-13T11:08:50.464Z,78.10
2023-05-13T11:11:31.109Z,77.80
2023-05-13T11:14:08.964Z,77.60
2023-05-13T11:16:46.624Z,77.30
2023-05-13T11:19:23.966Z,77.20
2023-05-13T11:21:58.980Z,76.00
2023-05-13T11:24:31.218Z,76.00
2023-05-13T11:27:17.652Z,75.60
2023-05-13T11:29:50.964Z,75.50
2023-05-13T11:32:54.341Z,75.20
2023-05-13T11:35:27.719Z,75.20
2023-05-13T11:38:03.734Z,75.30
2023-05-13T11:40:37.852Z,74.90
2023-05-13T11:43:11.885Z,75.30
2023-05-13T11:45:44.795Z,75.40
2023-05-13T11:48:23.932Z,75.60
2023-05-13T11:50:57.652Z,75.10
2023-05-13T11:53:32.671Z,75.40
2023-05-13T11:56:10.890Z,75.30
2023-05-13T11:58:43.409Z,74.50
2023-05-13T12:01:17.773Z,74.70
2023-05-13T12:03:49.970Z,75.10
2023-05-13T12:06:22.072Z,75.30
2023-05-13T12:08:57.009Z,75.40
2023-05-13T12:11:29.157Z,75.70
2023-05-13T12:14:04.408Z,75.40
2023-05-13T12:16:36.679Z,74.00
2023-05-13T12:19:08.879Z,72.90
2023-05-13T12:21:41.178Z,72.90
2023-05-13T12:24:23.101Z,73.20
2023-05-13T12:27:05.332Z,72.90
2023-05-13T12:29:43.038Z,73.10
2023-05-13T12:32:17.072Z,72.90
2023-05-13T12:34:50.605Z,72.70
2023-05-13T12:37:26.327Z,72.90
2023-05-13T12:40:13.362Z,72.70
2023-05-13T12:42:45.788Z,72.50
2023-05-13T12:45:18.193Z,72.00
2023-05-13T12:47:50.635Z,71.90
2023-05-13T12:50:23.344Z,71.60
2023-05-13T12:52:57.821Z,71.20
2023-05-13T12:55:33.019Z,71.50
2023-05-13T12:58:05.217Z,71.90
2023-05-13T13:00:37.474Z,71.00
2023-05-13T13:03:09.748Z,71.10
2023-05-13T13:05:42.559Z,71.20
2023-05-13T13:08:14.667Z,71.00
2023-05-13T13:10:52.023Z,71.10
2023-05-13T13:13:23.895Z,70.90
2023-05-13T13:15:56.224Z,70.70
2023-05-13T13:18:28.427Z,70.20
2023-05-13T13:21:00.542Z,70.40
2023-05-13T13:23:32.665Z,69.70
2023-05-13T13:26:07.634Z,69.30
2023-05-13T13:28:39.715Z,69.40
2023-05-13T13:31:12.262Z,69.00
2023-05-13T13:33:44.422Z,68.30
2023-05-13T13:36:17.032Z,66.20
2023-05-13T13:38:49.176Z,66.00
2023-05-13T13:41:25.743Z,66.00
2023-05-13T13:43:57.768Z,66.10
2023-05-13T13:46:29.943Z,66.40
2023-05-13T13:49:05.657Z,66.60
2023-05-13T13:51:45.088Z,66.90
2023-05-13T13:54:17.160Z,67.20
2023-05-13T13:56:52.028Z,67.60
2023-05-13T13:59:24.094Z,67.90
2023-05-13T14:01:56.994Z,68.20
2023-05-13T14:04:30.442Z,68.60
2023-05-13T14:07:02.887Z,69.00
2023-05-13T14:09:35.020Z,69.00
2023-05-13T14:12:09.809Z,68.90
2023-05-13T14:14:41.973Z,68.90
2023-05-13T14:17:14.479Z,68.50
2023-05-13T14:19:47.067Z,68.40
2023-05-13T14:22:19.250Z,68.00
2023-05-13T14:24:51.885Z,67.60
2023-05-13T14:27:26.670Z,67.60
2023-05-13T14:29:59.154Z,67.00
2023-05-13T14:32:31.335Z,67.40
2023-05-13T14:35:03.567Z,67.50
2023-05-13T14:37:35.700Z,67.60
2023-05-13T14:40:09.776Z,67.00
2023-05-13T14:42:44.499Z,66.50
2023-05-13T14:45:18.375Z,66.30
2023-05-13T14:47:53.990Z,66.50
2023-05-13T14:50:26.287Z,65.90
2023-05-13T14:52:58.428Z,65.40
2023-05-13T14:55:30.613Z,65.40
2023-05-13T14:58:05.589Z,66.30
2023-05-13T15:00:37.833Z,66.30
2023-05-13T15:03:10.210Z,66.20
2023-05-13T15:05:44.229Z,66.50
2023-05-13T15:08:16.877Z,66.50
2023-05-13T15:10:49.118Z,66.50
2023-05-13T15:13:24.976Z,66.40
2023-05-13T15:15:57.094Z,66.30
2023-05-13T15:18:29.336Z,66.10
2023-05-13T15:21:01.460Z,66.00
2023-05-13T15:23:34.005Z,66.10
2023-05-13T15:26:06.367Z,65.90
2023-05-13T15:28:41.040Z,66.10
2023-05-13T15:31:13.287Z,67.40
2023-05-13T15:33:45.502Z,67.40
2023-05-13T15:36:17.646Z,67.40
2023-05-13T15:38:50.075Z,67.00
2023-05-13T15:41:22.254Z,67.40
2023-05-13T15:43:57.048Z,67.70
2023-05-13T15:46:29.421Z,67.70
2023-05-13T15:49:01.790Z,66.70
2023-05-13T15:51:34.266Z,64.20
2023-05-13T15:54:06.665Z,63.20
2023-05-13T15:56:38.872Z,62.80
2023-05-13T15:59:13.538Z,63.10
2023-05-13T16:01:46.851Z,62.20
2023-05-13T16:04:19.010Z,60.10
2023-05-13T16:06:51.122Z,59.20
2023-05-13T16:09:23.220Z,59.00
2023-05-13T16:11:55.679Z,58.00
2023-05-13T16:14:31.151Z,57.90
2023-05-13T16:17:03.235Z,59.40
2023-05-13T16:19:36.241Z,59.80
2023-05-13T16:22:30.605Z,58.60
2023-05-13T16:25:05.008Z,58.50
2023-05-13T16:27:38.993Z,58.70
2023-05-13T16:30:14.070Z,59.90
2023-05-13T16:32:49.032Z,61.10
2023-05-13T16:35:21.800Z,61.70
2023-05-13T16:37:53.997Z,62.80
2023-05-13T16:40:26.265Z,62.60
2023-05-13T16:43:01.792Z,61.50
2023-05-13T16:45:39.564Z,60.80
2023-05-13T16:48:12.462Z,59.50
2023-05-13T16:50:44.655Z,59.00
2023-05-13T16:53:16.901Z,58.90
2023-05-13T16:55:50.186Z,59.20
2023-05-13T16:58:22.372Z,59.00
2023-05-13T17:00:59.156Z,59.70
2023-05-13T17:03:31.528Z,60.20
2023-05-13T17:06:04.087Z,60.30
2023-05-13T17:08:36.134Z,61.40
2023-05-13T17:11:16.112Z,60.70
2023-05-13T17:13:48.674Z,61.20
2023-05-13T17:16:23.804Z,61.70
2023-05-13T17:18:58.339Z,62.00
2023-05-13T17:21:31.413Z,62.80
2023-05-13T17:24:03.937Z,63.20
2023-05-13T17:26:38.283Z,63.40
2023-05-13T17:29:10.769Z,64.30
2023-05-13T17:31:45.827Z,64.70
2023-05-13T17:34:18.101Z,65.60
2023-05-13T17:36:50.381Z,65.30
2023-05-13T17:39:22.474Z,64.50
2023-05-13T17:41:54.612Z,63.90
2023-05-13T17:44:26.642Z,64.00
2023-05-13T17:47:04.578Z,64.20
2023-05-13T17:49:36.618Z,64.60
2023-05-13T17:52:09.927Z,65.20
2023-05-13T17:54:42.018Z,64.80
2023-05-13T17:57:14.581Z,64.20
2023-05-13T17:59:46.622Z,64.60
2023-05-13T18:02:21.366Z,64.60
2023-05-13T18:04:53.518Z,64.50
2023-05-13T18:07:25.880Z,64.10
2023-05-13T18:09:58.045Z,63.70
2023-05-13T18:12:30.212Z,63.80
2023-05-13T18:15:02.340Z,64.10
2023-05-13T18:17:37.079Z,64.30
2023-05-13T18:20:10.074Z,65.20
2023-05-13T18:22:42.206Z,65.20
2023-05-13T18:25:14.350Z,65.30
2023-05-13T18:27:46.422Z,65.60
2023-05-13T18:30:19.047Z,65.70
2023-05-13T18:32:53.907Z,66.10
2023-05-13T18:35:26.032Z,66.60
2023-05-13T18:37:58.083Z,67.00
2023-05-13T18:40:30.146Z,67.10
2023-05-13T18:43:02.196Z,67.40
2023-05-13T18:45:34.607Z,67.50
2023-05-13T18:48:10.122Z,68.00
2023-05-13T18:50:42.331Z,68.40
2023-05-13T18:53:14.435Z,68.50
2023-05-13T18:55:46.827Z,68.60
2023-05-13T18:58:19.021Z,68.80
2023-05-13T19:00:51.858Z,69.30
2023-05-13T19:03:28.168Z,69.70
2023-05-13T19:06:00.378Z,70.40
2023-05-13T19:08:32.545Z,70.70
2023-05-13T19:11:04.706Z,71.40
2023-05-13T19:13:46.707Z,71.90
2023-05-13T19:16:19.552Z,72.50
2023-05-13T19:18:54.360Z,72.70
2023-05-13T19:21:26.532Z,73.00
2023-05-13T19:23:58.900Z,73.20
2023-05-13T19:26:31.049Z,73.50
2023-05-13T19:29:03.151Z,73.90
2023-05-13T19:31:35.337Z,74.40
2023-05-13T19:34:10.042Z,74.90
2023-05-13T19:36:42.421Z,75.40
2023-05-13T19:39:14.605Z,75.90
2023-05-13T19:41:48.434Z,76.20
2023-05-13T19:44:20.552Z,76.60
2023-05-13T19:46:52.822Z,77.50
2023-05-13T19:49:28.125Z,77.30
2023-05-13T19:52:00.376Z,77.90
2023-05-13T19:54:32.771Z,78.20
2023-05-13T19:57:05.437Z,79.10
2023-05-13T19:59:39.548Z,80.80
2023-05-13T20:02:11.755Z,81.70
2023-05-13T20:04:46.500Z,82.00
2023-05-13T20:07:18.750Z,82.00
2023-05-13T20:09:51.109Z,81.70
2023-05-13T20:12:24.215Z,81.50
2023-05-13T20:14:58.163Z,81.00
2023-05-13T20:17:30.506Z,80.30
2023-05-13T20:20:06.835Z,79.90
2023-05-13T20:22:38.998Z,79.40
2023-05-13T20:25:11.423Z,79.10
2023-05-13T20:27:43.529Z,78.40
2023-05-13T20:30:16.717Z,77.90
2023-05-13T20:32:48.921Z,77.60
2023-05-13T20:35:24.010Z,77.30
2023-05-13T20:37:57.470Z,76.90
2023-05-13T20:40:29.627Z,76.20
2023-05-13T20:43:01.806Z,76.00
2023-05-13T20:45:33.902Z,75.80
2023-05-13T20:48:06.825Z,75.30
2023-05-13T20:50:41.735Z,75.10
2023-05-13T20:53:14.579Z,75.00
2023-05-13T20:55:46.744Z,74.90
2023-05-13T20:58:18.870Z,74.80
2023-05-13T21:00:50.935Z,74.40
2023-05-13T21:03:23.242Z,74.80
2023-05-13T21:05:58.265Z,74.70
2023-05-13T21:08:30.338Z,73.80
2023-05-13T21:11:02.434Z,73.80
2023-05-13T21:13:34.485Z,73.10
2023-05-13T21:16:07.045Z,72.90
2023-05-13T21:18:39.251Z,73.10
2023-05-13T21:21:14.197Z,73.00
2023-05-13T21:23:47.830Z,73.00
2023-05-13T21:26:20.341Z,73.10
2023-05-13T21:28:52.491Z,73.20
2023-05-13T21:31:24.653Z,73.10
2023-05-13T21:33:56.746Z,73.10
2023-05-13T21:36:32.090Z,73.30
2023-05-13T21:39:04.699Z,73.30
2023-05-13T21:41:37.014Z,73.30
2023-05-13T21:44:09.065Z,73.70
2023-05-13T21:46:41.133Z,73.60
2023-05-13T21:49:13.392Z,73.60
2023-05-13T21:51:48.043Z,74.00
2023-05-13T21:54:20.202Z,74.00
2023-05-13T21:56:52.345Z,73.80
2023-05-13T21:59:24.593Z,74.10
2023-05-13T22:01:57.021Z,74.20
2023-05-13T22:04:31.531Z,74.20
2023-05-13T22:07:08.059Z,73.70
2023-05-13T22:09:40.216Z,72.90
2023-05-13T22:12:12.334Z,72.60
2023-05-13T22:14:44.462Z,72.60
2023-05-13T22:17:16.680Z,72.70
2023-05-13T22:19:49.017Z,72.60
2023-05-13T22:22:23.665Z,72.40
2023-05-13T22:24:55.810Z,73.00
2023-05-13T22:27:27.906Z,72.90
2023-05-13T22:30:00.070Z,72.90
2023-05-13T22:32:34.497Z,73.00
2023-05-13T22:35:08.150Z,73.40
2023-05-13T22:37:42.860Z,73.60
2023-05-13T22:40:16.231Z,73.80
2023-05-13T22:42:48.316Z,73.70
2023-05-13T22:45:20.540Z,73.70
2023-05-13T22:47:52.822Z,73.90
2023-05-13T22:50:25.185Z,73.90
2023-05-13T22:53:02.862Z,73.50
2023-05-13T22:55:34.918Z,73.60
2023-05-13T22:58:06.974Z,73.20
2023-05-13T23:00:39.076Z,73.00
2023-05-13T23:03:11.141Z,73.10
2023-05-13T23:05:43.259Z,73.30
2023-05-13T23:08:18.098Z,73.70
2023-05-13T23:10:50.188Z,74.10
2023-05-13T23:13:22.298Z,74.50
2023-05-13T23:15:54.458Z,75.60
2023-05-13T23:18:26.720Z,76.90
2023-05-13T23:20:58.900Z,77.40
2023-05-13T23:23:34.161Z,78.10
2023-05-13T23:26:06.253Z,77.80
2023-05-13T23:28:38.324Z,77.40
2023-05-13T23:31:10.604Z,76.80
2023-05-13T23:33:42.937Z,76.40
2023-05-13T23:36:16.230Z,76.00
2023-05-13T23:38:51.014Z,75.50
2023-05-13T23:41:23.203Z,75.40
2023-05-13T23:43:55.460Z,74.90
2023-05-13T23:46:27.704Z,74.40
2023-05-13T23:49:02.357Z,74.50
2023-05-13T23:51:37.273Z,74.60
2023-05-13T23:54:12.084Z,74.50
2023-05-13T23:56:44.220Z,74.00
2023-05-13T23:59:22.543Z,74.00
